createdAt,value
2023-01-04T00:01:40.467Z,49.69
2023-01-04T00:04:13.863Z,49.92
2023-01-04T00:06:40.837Z,49.88
2023-01-04T00:09:16.414Z,50.29
2023-01-04T00:11:48.979Z,50.05
2023-01-04T00:14:26.148Z,50.41
2023-01-04T00:17:09.168Z,50.05
2023-01-04T00:20:01.159Z,50.09
2023-01-04T00:22:38.444Z,50.37
2023-01-04T00:25:13.995Z,50.39
2023-01-04T00:27:46.991Z,50.17
2023-01-04T00:30:19.797Z,50.38
2023-01-04T00:32:58.738Z,50.58
2023-01-04T00:35:45.615Z,50.29
2023-01-04T00:38:20.945Z,50.86
2023-01-04T00:40:54.279Z,50.74
2023-01-04T00:43:28.525Z,50.91
2023-01-04T00:45:57.563Z,51.01
2023-01-04T00:48:28.187Z,50.98
2023-01-04T00:51:14.169Z,51.11
2023-01-04T00:53:41.084Z,51.46
2023-01-04T00:56:15.529Z,50.99
2023-01-04T00:58:45.129Z,51.41
2023-01-04T01:01:21.735Z,50.97
2023-01-04T01:04:04.984Z,51.29
2023-01-04T01:06:45.636Z,51.07
2023-01-04T01:09:15.668Z,50.87
2023-01-04T01:11:50.398Z,50.97
2023-01-04T01:14:20.966Z,51.00
2023-01-04T01:16:56.429Z,50.79
2023-01-04T01:19:25.132Z,50.86
2023-01-04T01:24:40.543Z,51.51
2023-01-04T01:27:07.548Z,51.61
2023-01-04T01:29:34.539Z,51.43
2023-01-04T01:32:06.100Z,51.56
2023-01-04T01:34:41.003Z,51.74
2023-01-04T01:37:11.525Z,51.47
2023-01-04T01:39:45.928Z,51.58
2023-01-04T01:42:30.557Z,51.35
2023-01-04T01:45:08.846Z,51.64
2023-01-04T01:47:46.832Z,51.61
2023-01-04T01:50:36.977Z,51.64
2023-01-04T01:53:24.367Z,51.55
2023-01-04T01:56:02.092Z,51.74
2023-01-04T01:58:40.185Z,51.98
2023-01-04T02:01:12.555Z,52.20
2023-01-04T02:03:43.906Z,52.15
2023-01-04T02:06:12.888Z,51.82
2023-01-04T02:08:44.510Z,51.88
2023-01-04T02:11:14.079Z,51.98
2023-01-04T02:17:05.375Z,52.39
2023-01-04T02:19:55.890Z,52.03
2023-01-04T02:23:01.727Z,52.25
2023-01-04T02:25:48.150Z,51.93
2023-01-04T02:28:30.152Z,51.91
2023-01-04T02:31:20.430Z,52.27
2023-01-04T02:34:00.281Z,52.04
2023-01-04T02:36:59.758Z,52.40
2023-01-04T02:40:01.779Z,52.36
2023-01-04T02:43:16.957Z,52.65
2023-01-04T02:45:59.189Z,52.55
2023-01-04T02:51:42.030Z,52.73
2023-01-04T02:54:25.339Z,52.81
2023-01-04T02:57:05.841Z,52.79
2023-01-04T03:03:17.344Z,52.86
2023-01-04T03:06:18.781Z,53.26
2023-01-04T03:08:48.875Z,53.11
2023-01-04T03:11:49.170Z,52.88
2023-01-04T03:14:32.422Z,52.54
2023-01-04T03:17:08.664Z,53.08
2023-01-04T03:19:55.517Z,53.23
2023-01-04T03:26:05.918Z,53.13
2023-01-04T03:29:03.940Z,53.19
2023-01-04T03:32:11.443Z,53.22
2023-01-04T03:35:12.357Z,53.59
2023-01-04T03:38:21.501Z,53.62
2023-01-04T03:41:15.507Z,53.30
2023-01-04T03:44:19.708Z,53.52
2023-01-04T03:47:22.794Z,53.55
2023-01-04T03:50:10.177Z,53.54
2023-01-04T03:52:39.393Z,53.72
2023-01-04T03:55:09.931Z,54.17
2023-01-04T03:57:45.274Z,54.33
2023-01-04T04:00:17.800Z,54.61
2023-01-04T04:03:10.288Z,54.36
2023-01-04T04:06:01.094Z,54.69
2023-01-04T04:08:29.018Z,54.27
2023-01-04T04:10:57.513Z,54.22
2023-01-04T04:13:27.540Z,54.25
2023-01-04T04:15:54.882Z,54.06
2023-01-04T04:21:15.487Z,53.57
2023-01-04T04:23:57.387Z,53.61
2023-01-04T04:26:26.980Z,53.72
2023-01-04T04:29:06.768Z,54.02
2023-01-04T04:31:49.086Z,53.61
2023-01-04T04:34:21.501Z,53.89
2023-01-04T04:36:48.545Z,53.68
2023-01-04T04:39:17.765Z,53.92
2023-01-04T04:41:47.740Z,53.92
2023-01-04T04:44:32.876Z,53.75
2023-01-04T04:47:00.581Z,53.60
2023-01-04T04:49:31.399Z,53.67
2023-01-04T04:51:58.393Z,53.84
2023-01-04T04:57:16.672Z,54.24
2023-01-04T04:59:54.617Z,54.12
2023-01-04T05:02:23.042Z,54.18
2023-01-04T05:04:58.996Z,54.20
2023-01-04T05:07:30.079Z,54.06
2023-01-04T05:09:59.327Z,54.01
2023-01-04T05:15:45.021Z,54.25
2023-01-04T05:18:20.002Z,54.32
2023-01-04T05:20:49.480Z,54.38
2023-01-04T05:23:20.163Z,54.44
2023-01-04T05:26:30.272Z,54.62
2023-01-04T05:29:10.100Z,54.72
2023-01-04T05:31:43.252Z,54.57
2023-01-04T05:34:17.073Z,54.54
2023-01-04T05:36:55.444Z,54.26
2023-01-04T05:39:27.964Z,54.40
2023-01-04T05:42:19.081Z,54.30
2023-01-04T05:44:52.314Z,54.34
2023-01-04T05:47:28.839Z,54.24
2023-01-04T05:50:09.558Z,54.26
2023-01-04T05:52:44.644Z,54.67
2023-01-04T05:55:21.138Z,54.70
2023-01-04T05:58:06.589Z,54.69
2023-01-04T06:00:56.249Z,54.37
2023-01-04T06:03:31.460Z,54.36
2023-01-04T06:06:01.604Z,54.73
2023-01-04T06:08:53.127Z,54.56
2023-01-04T06:11:27.264Z,54.67
2023-01-04T06:14:03.051Z,54.36
2023-01-04T06:16:50.753Z,54.68
2023-01-04T06:19:35.583Z,54.65
2023-01-04T06:25:10.068Z,54.30
2023-01-04T06:27:42.880Z,54.55
2023-01-04T06:30:16.908Z,54.47
2023-01-04T06:32:49.037Z,54.52
2023-01-04T06:38:11.670Z,54.60
2023-01-04T06:40:51.250Z,54.47
2023-01-04T06:43:31.825Z,54.46
2023-01-04T06:46:06.096Z,54.61
2023-01-04T06:48:33.358Z,54.99
2023-01-04T06:51:11.510Z,54.76
2023-01-04T06:53:40.270Z,54.28
2023-01-04T06:56:17.250Z,54.30
2023-01-04T06:58:49.636Z,54.84
2023-01-04T07:01:26.926Z,54.56
2023-01-04T07:03:57.162Z,54.48
2023-01-04T07:06:34.779Z,54.27
2023-01-04T07:09:11.598Z,54.41
2023-01-04T07:12:03.174Z,54.53
2023-01-04T07:14:40.511Z,54.78
2023-01-04T07:17:18.259Z,54.65
2023-01-04T07:19:45.680Z,54.46
2023-01-04T07:22:15.788Z,54.64
2023-01-04T07:24:48.587Z,54.64
2023-01-04T07:27:19.329Z,54.51
2023-01-04T07:29:49.462Z,54.61
2023-01-04T07:32:16.824Z,54.47
2023-01-04T07:34:47.916Z,54.79
2023-01-04T07:37:17.420Z,54.59
2023-01-04T07:39:51.492Z,54.46
2023-01-04T07:42:20.322Z,54.79
2023-01-04T07:44:47.520Z,54.58
2023-01-04T07:47:19.961Z,54.33
2023-01-04T07:49:49.155Z,54.25
2023-01-04T07:52:16.722Z,54.04
2023-01-04T07:54:44.264Z,54.32
2023-01-04T07:57:11.398Z,54.02
2023-01-04T07:59:41.787Z,54.19
2023-01-04T08:02:17.775Z,54.54
2023-01-04T08:04:45.212Z,54.17
2023-01-04T08:07:12.257Z,54.01
2023-01-04T08:09:39.288Z,54.17
2023-01-04T08:12:09.662Z,53.93
2023-01-04T08:14:39.770Z,54.01
2023-01-04T08:17:10.360Z,53.72
2023-01-04T08:19:39.327Z,53.86
2023-01-04T08:22:11.460Z,53.49
2023-01-04T08:24:38.570Z,53.49
2023-01-04T08:27:09.335Z,53.47
2023-01-04T08:29:40.837Z,53.80
2023-01-04T08:32:18.627Z,54.17
2023-01-04T08:34:51.643Z,53.39
2023-01-04T08:37:20.325Z,53.63
2023-01-04T08:39:50.238Z,53.54
2023-01-04T08:42:28.614Z,53.80
2023-01-04T08:45:00.452Z,54.14
2023-01-04T08:47:30.720Z,53.38
2023-01-04T08:49:58.298Z,53.50
2023-01-04T08:52:25.689Z,53.23
2023-01-04T08:54:53.149Z,53.07
2023-01-04T08:57:20.321Z,52.98
2023-01-04T08:59:47.395Z,53.04
2023-01-04T09:02:25.353Z,52.67
2023-01-04T09:04:52.716Z,52.84
2023-01-04T09:07:19.889Z,51.67
2023-01-04T09:09:52.808Z,51.24
2023-01-04T09:12:22.490Z,50.78
2023-01-04T09:14:49.713Z,49.98
2023-01-04T09:17:16.972Z,49.13
2023-01-04T09:19:47.706Z,48.31
2023-01-04T09:22:15.072Z,48.01
2023-01-04T09:24:42.507Z,47.10
2023-01-04T09:27:20.135Z,46.03
2023-01-04T09:29:47.671Z,45.01
2023-01-04T09:32:17.242Z,44.27
2023-01-04T09:34:47.888Z,43.56
2023-01-04T09:37:26.884Z,42.62
2023-01-04T09:39:55.330Z,41.89
2023-01-04T09:42:39.294Z,40.85
2023-01-04T09:45:25.369Z,40.80
2023-01-04T09:47:54.004Z,40.09
2023-01-04T09:50:25.351Z,39.45
2023-01-04T09:53:13.590Z,38.76
2023-01-04T09:55:50.909Z,38.46
2023-01-04T09:58:31.430Z,37.89
2023-01-04T10:01:05.378Z,37.81
2023-01-04T10:03:49.354Z,37.57
2023-01-04T10:06:27.561Z,37.39
2023-01-04T10:09:01.696Z,36.85
2023-01-04T10:11:47.498Z,35.51
2023-01-04T10:14:33.375Z,35.51
2023-01-04T10:17:17.845Z,35.19
2023-01-04T10:23:01.380Z,34.08
2023-01-04T10:25:34.369Z,33.53
2023-01-04T10:28:25.568Z,33.10
2023-01-04T10:31:41.041Z,32.70
2023-01-04T10:34:30.861Z,32.57
2023-01-04T10:37:48.200Z,32.08
2023-01-04T10:40:17.632Z,31.50
2023-01-04T10:42:56.629Z,30.88
2023-01-04T10:45:48.119Z,30.64
2023-01-04T10:48:25.499Z,30.29
2023-01-04T10:51:09.007Z,29.80
2023-01-04T10:53:57.121Z,29.14
2023-01-04T10:56:34.394Z,29.09
2023-01-04T10:59:09.573Z,28.23
2023-01-04T11:01:39.488Z,27.68
2023-01-04T11:04:24.961Z,27.00
2023-01-04T11:07:11.385Z,26.95
2023-01-04T11:09:53.312Z,26.05
2023-01-04T11:12:22.850Z,25.64
2023-01-04T11:14:58.636Z,25.14
2023-01-04T11:17:27.154Z,25.16
2023-01-04T11:19:56.122Z,24.66
2023-01-04T11:22:33.918Z,23.86
2023-01-04T11:25:35.019Z,23.51
2023-01-04T11:27:58.628Z,22.90
2023-01-04T11:30:29.478Z,22.83
2023-01-04T11:33:01.683Z,22.35
2023-01-04T11:35:53.623Z,22.45
2023-01-04T11:38:22.983Z,21.85
2023-01-04T11:41:06.117Z,21.96
2023-01-04T11:43:36.771Z,21.35
2023-01-04T11:46:06.056Z,21.10
2023-01-04T11:48:38.987Z,21.01
2023-01-04T11:51:17.326Z,20.86
2023-01-04T11:53:48.457Z,20.57
2023-01-04T11:56:24.380Z,20.40
2023-01-04T11:59:13.955Z,20.23
2023-01-04T12:01:52.107Z,19.76
2023-01-04T12:04:35.573Z,19.80
2023-01-04T12:07:11.244Z,19.01
2023-01-04T12:09:38.615Z,19.61
2023-01-04T12:12:15.981Z,19.75
2023-01-04T12:15:00.454Z,19.33
2023-01-04T12:17:43.326Z,18.96
2023-01-04T12:20:21.743Z,18.45
2023-01-04T12:22:55.857Z,18.29
2023-01-04T12:25:44.887Z,18.56
2023-01-04T12:28:38.533Z,18.22
2023-01-04T12:31:25.152Z,18.21
2023-01-04T12:34:21.278Z,17.95
2023-01-04T12:36:53.456Z,17.90
2023-01-04T12:39:24.647Z,17.33
2023-01-04T12:42:01.231Z,17.80
2023-01-04T12:44:39.089Z,17.34
2023-01-04T12:47:37.575Z,17.22
2023-01-04T12:50:09.144Z,17.74
2023-01-04T12:52:55.351Z,16.93
2023-01-04T12:55:42.137Z,17.22
2023-01-04T13:01:38.800Z,17.08
2023-01-04T13:04:24.871Z,18.42
2023-01-04T13:06:52.853Z,19.12
2023-01-04T13:09:28.206Z,18.79
2023-01-04T13:12:05.163Z,19.38
2023-01-04T13:14:36.946Z,20.85
2023-01-04T13:17:16.608Z,20.18
2023-01-04T13:19:45.668Z,20.57
2023-01-04T13:22:28.956Z,21.53
2023-01-04T13:25:20.785Z,21.53
2023-01-04T13:28:05.800Z,21.53
2023-01-04T13:30:48.909Z,21.39
2023-01-04T13:33:32.894Z,21.97
2023-01-04T13:36:12.258Z,23.31
2023-01-04T13:38:46.486Z,22.40
2023-01-04T13:41:25.626Z,22.30
2023-01-04T13:44:05.407Z,22.12
2023-01-04T13:46:35.397Z,23.12
2023-01-04T13:49:03.318Z,23.15
2023-01-04T13:51:37.027Z,23.18
2023-01-04T13:54:18.947Z,23.44
2023-01-04T13:56:55.815Z,24.67
2023-01-04T13:59:26.860Z,24.62
2023-01-04T14:01:55.589Z,24.06
2023-01-04T14:04:38.779Z,25.83
2023-01-04T14:07:11.597Z,25.35
2023-01-04T14:09:58.395Z,25.18
2023-01-04T14:12:31.609Z,25.51
2023-01-04T14:15:20.316Z,25.53
2023-01-04T14:17:50.253Z,25.98
2023-01-04T14:20:23.503Z,27.00
2023-01-04T14:22:54.309Z,26.50
2023-01-04T14:25:35.933Z,25.49
2023-01-04T14:28:25.080Z,27.28
2023-01-04T14:31:06.898Z,27.02
2023-01-04T14:33:39.572Z,27.40
2023-01-04T14:39:25.395Z,28.78
2023-01-04T14:42:02.146Z,28.12
2023-01-04T14:44:44.432Z,28.66
2023-01-04T14:47:21.191Z,28.90
2023-01-04T14:49:51.774Z,29.21
2023-01-04T14:52:23.752Z,30.74
2023-01-04T14:54:57.775Z,30.35
2023-01-04T14:57:33.695Z,30.64
2023-01-04T15:00:11.430Z,31.25
2023-01-04T15:02:41.785Z,31.05
2023-01-04T15:08:04.910Z,31.76
2023-01-04T15:10:39.570Z,31.47
2023-01-04T15:13:20.563Z,31.81
2023-01-04T15:15:57.500Z,31.99
2023-01-04T15:18:38.348Z,32.30
2023-01-04T15:21:12.198Z,32.30
2023-01-04T15:23:47.031Z,33.18
2023-01-04T15:26:19.953Z,34.08
2023-01-04T15:28:50.370Z,34.40
2023-01-04T15:31:21.002Z,34.29
2023-01-04T15:33:59.196Z,34.84
2023-01-04T15:36:32.361Z,34.61
2023-01-04T15:38:59.407Z,35.79
2023-01-04T15:41:44.975Z,35.50
2023-01-04T15:44:15.710Z,35.75
2023-01-04T15:46:42.807Z,35.71
2023-01-04T15:49:16.708Z,36.25
2023-01-04T15:51:47.533Z,36.76
2023-01-04T15:54:21.988Z,36.80
2023-01-04T15:57:01.283Z,37.82
2023-01-04T15:59:31.627Z,37.83
2023-01-04T16:02:14.530Z,37.96
2023-01-04T16:04:47.616Z,38.64
2023-01-04T16:07:14.911Z,39.87
2023-01-04T16:09:48.850Z,41.12
2023-01-04T16:12:43.198Z,41.20
2023-01-04T16:18:17.146Z,40.96
2023-01-04T16:20:49.613Z,40.94
2023-01-04T16:23:21.905Z,41.13
2023-01-04T16:25:52.642Z,41.54
2023-01-04T16:28:30.163Z,41.67
2023-01-04T16:31:05.522Z,41.21
2023-01-04T16:33:38.445Z,42.29
2023-01-04T16:36:07.278Z,42.35
2023-01-04T16:38:38.390Z,42.81
2023-01-04T16:41:13.662Z,43.48
2023-01-04T16:44:17.332Z,43.43
2023-01-04T16:46:47.507Z,44.05
2023-01-04T16:49:35.069Z,43.20
2023-01-04T16:52:04.429Z,43.17
2023-01-04T16:54:36.860Z,43.08
2023-01-04T17:00:03.390Z,42.85
2023-01-04T17:02:30.642Z,44.03
2023-01-04T17:05:03.880Z,43.97
2023-01-04T17:07:34.896Z,44.93
2023-01-04T17:10:11.940Z,44.88
2023-01-04T17:12:49.069Z,45.04
2023-01-04T17:15:42.576Z,45.87
2023-01-04T17:21:31.935Z,45.58
2023-01-04T17:23:56.370Z,45.42
2023-01-04T17:26:27.144Z,45.75
2023-01-04T17:29:10.391Z,45.63
2023-01-04T17:31:44.701Z,45.25
2023-01-04T17:34:22.458Z,44.94
2023-01-04T17:36:54.189Z,45.54
2023-01-04T17:39:22.928Z,45.71
2023-01-04T17:42:00.205Z,45.75
2023-01-04T17:44:39.927Z,45.96
2023-01-04T17:47:10.076Z,46.18
2023-01-04T17:49:40.089Z,46.54
2023-01-04T17:52:09.038Z,45.80
2023-01-04T17:54:37.141Z,45.70
2023-01-04T17:57:05.058Z,45.79
2023-01-04T17:59:32.539Z,45.03
2023-01-04T18:01:59.929Z,45.50
2023-01-04T18:04:27.005Z,45.45
2023-01-04T18:06:54.880Z,45.44
2023-01-04T18:09:24.481Z,45.19
2023-01-04T18:11:51.869Z,44.83
2023-01-04T18:14:24.560Z,45.19
2023-01-04T18:16:58.671Z,45.46
2023-01-04T18:19:29.769Z,46.32
2023-01-04T18:21:57.865Z,45.51
2023-01-04T18:24:42.028Z,45.08
2023-01-04T18:27:29.013Z,45.12
2023-01-04T18:29:56.948Z,44.80
2023-01-04T18:32:28.539Z,44.67
2023-01-04T18:35:01.251Z,44.76
2023-01-04T18:37:35.771Z,44.91
2023-01-04T18:40:12.439Z,44.75
2023-01-04T18:42:55.981Z,45.10
2023-01-04T18:45:23.546Z,45.13
2023-01-04T18:47:52.509Z,45.31
2023-01-04T18:50:23.462Z,45.26
2023-01-04T18:52:53.194Z,45.28
2023-01-04T18:55:20.621Z,45.22
2023-01-04T18:57:47.984Z,45.74
2023-01-04T19:00:17.599Z,45.84
2023-01-04T19:02:47.438Z,45.80
2023-01-04T19:05:19.310Z,46.27
2023-01-04T19:07:50.853Z,46.05
2023-01-04T19:10:18.445Z,45.97
2023-01-04T19:12:48.316Z,45.68
2023-01-04T19:15:18.701Z,45.72
2023-01-04T19:17:48.779Z,45.72
2023-01-04T19:20:19.883Z,45.59
2023-01-04T19:22:47.431Z,45.54
2023-01-04T19:25:15.383Z,45.63
2023-01-04T19:27:43.014Z,45.63
2023-01-04T19:30:13.287Z,45.75
2023-01-04T19:32:45.362Z,45.79
2023-01-04T19:35:13.011Z,45.46
2023-01-04T19:37:43.500Z,45.50
2023-01-04T19:40:11.419Z,45.54
2023-01-04T19:42:40.515Z,45.38
2023-01-04T19:45:09.122Z,45.45
2023-01-04T19:47:36.435Z,45.23
2023-01-04T19:50:04.000Z,45.27
2023-01-04T19:52:34.401Z,45.27
2023-01-04T19:55:01.471Z,45.31
2023-01-04T19:57:28.486Z,45.34
2023-01-04T19:59:56.691Z,45.45
2023-01-04T20:02:23.935Z,45.50
2023-01-04T20:04:51.164Z,45.82
2023-01-04T20:07:23.803Z,45.69
2023-01-04T20:09:52.037Z,45.52
2023-01-04T20:12:22.030Z,45.66
2023-01-04T20:14:49.149Z,45.56
2023-01-04T20:17:16.057Z,45.37
2023-01-04T20:19:43.044Z,45.05
2023-01-04T20:22:10.943Z,45.05
2023-01-04T20:24:38.013Z,44.94
2023-01-04T20:27:05.204Z,44.99
2023-01-04T20:29:33.945Z,44.70
2023-01-04T20:32:04.840Z,45.10
2023-01-04T20:34:32.380Z,44.73
2023-01-04T20:36:59.399Z,44.79
2023-01-04T20:39:29.417Z,44.79
2023-01-04T20:42:14.874Z,44.85
2023-01-04T20:44:42.185Z,44.85
2023-01-04T20:47:10.516Z,44.36
2023-01-04T20:49:37.492Z,44.69
2023-01-04T20:52:04.684Z,44.52
2023-01-04T20:54:31.596Z,44.60
2023-01-04T20:56:58.689Z,44.31
2023-01-04T20:59:25.837Z,44.52
2023-01-04T21:01:56.369Z,44.05
2023-01-04T21:04:23.511Z,44.33
2023-01-04T21:06:51.568Z,44.19
2023-01-04T21:09:18.606Z,44.40
2023-01-04T21:11:45.558Z,44.41
2023-01-04T21:14:12.740Z,44.72
2023-01-04T21:16:42.082Z,44.14
2023-01-04T21:19:10.735Z,44.22
2023-01-04T21:21:40.840Z,44.16
2023-01-04T21:24:08.072Z,44.23
2023-01-04T21:26:35.369Z,44.12
2023-01-04T21:29:04.962Z,44.09
2023-01-04T21:31:32.644Z,44.40
2023-01-04T21:33:59.706Z,44.50
2023-01-04T21:36:29.369Z,44.79
2023-01-04T21:38:59.491Z,44.63
2023-01-04T21:41:26.786Z,44.78
2023-01-04T21:43:54.944Z,44.67
2023-01-04T21:46:23.285Z,44.69
2023-01-04T21:48:53.281Z,45.13
2023-01-04T21:51:20.477Z,45.02
2023-01-04T21:53:48.303Z,45.33
2023-01-04T21:56:17.062Z,45.59
2023-01-04T21:58:44.997Z,44.76
2023-01-04T22:01:17.353Z,44.83
2023-01-04T22:03:45.296Z,45.04
2023-01-04T22:06:14.089Z,44.84
2023-01-04T22:08:45.305Z,45.17
2023-01-04T22:11:14.019Z,45.33
2023-01-04T22:13:41.133Z,45.14
2023-01-04T22:16:16.147Z,45.25
2023-01-04T22:18:50.000Z,45.35
2023-01-04T22:21:21.508Z,45.79
2023-01-04T22:23:48.637Z,44.90
2023-01-04T22:26:15.795Z,45.32
2023-01-04T22:28:42.898Z,45.34
2023-01-04T22:31:11.687Z,45.39
2023-01-04T22:33:41.910Z,45.24
2023-01-04T22:36:17.125Z,45.44
2023-01-04T22:38:52.034Z,45.35
2023-01-04T22:41:21.562Z,45.21
2023-01-04T22:43:53.581Z,45.17
2023-01-04T22:46:20.642Z,45.15
2023-01-04T22:48:47.649Z,45.24
2023-01-04T22:51:16.505Z,45.30
2023-01-04T22:53:43.763Z,45.37
2023-01-04T22:56:21.641Z,45.45
2023-01-04T22:58:54.959Z,45.58
2023-01-04T23:01:24.236Z,45.28
2023-01-04T23:03:52.899Z,45.57
2023-01-04T23:06:20.936Z,45.44
2023-01-04T23:08:49.044Z,45.50
2023-01-04T23:11:17.892Z,45.49
2023-01-04T23:13:48.826Z,45.32
2023-01-04T23:16:18.941Z,45.49
2023-01-04T23:18:46.048Z,45.70
2023-01-04T23:21:15.656Z,45.55
2023-01-04T23:23:43.158Z,45.75
2023-01-04T23:26:14.773Z,45.81
2023-01-04T23:28:53.015Z,45.96
2023-01-04T23:31:36.210Z,45.91
2023-01-04T23:34:06.659Z,45.91
2023-01-04T23:36:38.189Z,45.83
2023-01-04T23:39:07.147Z,46.08
2023-01-04T23:41:49.350Z,46.40
2023-01-04T23:44:17.016Z,46.32
2023-01-04T23:46:44.776Z,46.65
2023-01-04T23:49:12.968Z,46.38
2023-01-04T23:51:43.285Z,46.04
2023-01-04T23:54:12.473Z,46.18
2023-01-04T23:56:40.026Z,46.28
2023-01-04T23:59:08.896Z,46.14
